Time;durP1;ratioP1;P1;durP2;ratioP2;P2;SDS_P1;SDS_P2;PMS_P1;PMS_P2;Temp;Humidity;BMP_temperature;BMP_pressure;BME280_temperature;BME280_humidity;BME280_pressure;Samples;Min_cycle;Max_cycle;Signal;HPM_P1;HPM_P2
2023/03/14 00:01:34;;;;;;;6.23;3.80;;;10.80;99.90;;;;;;10062045;29;20272;-88
2023/03/14 00:06:36;;;;;;;6.07;3.53;;;10.80;99.90;;;;;;10075684;29;20240;-87
2023/03/14 00:11:39;;;;;;;4.03;3.23;;;10.80;99.90;;;;;;10090803;29;20635;-87
2023/03/14 00:16:41;;;;;;;4.93;2.90;;;10.90;99.90;;;;;;10078751;29;21118;-87
2023/03/14 00:21:44;;;;;;;4.50;3.23;;;10.90;99.90;;;;;;10068870;29;20278;-87
2023/03/14 00:26:46;;;;;;;5.33;3.83;;;10.90;99.90;;;;;;10052143;29;20258;-87
2023/03/14 00:31:49;;;;;;;5.20;3.33;;;10.90;99.90;;;;;;10057894;29;20707;-87
2023/03/14 00:36:52;;;;;;;4.63;3.30;;;10.90;99.90;;;;;;10079139;29;20245;-87
2023/03/14 00:41:54;;;;;;;4.90;3.07;;;10.90;99.90;;;;;;10078368;29;20705;-87
2023/03/14 00:46:57;;;;;;;4.10;2.80;;;11.00;99.90;;;;;;10053669;29;20309;-87
2023/03/14 00:52:00;;;;;;;3.47;2.70;;;11.10;99.90;;;;;;10051902;29;20241;-87
2023/03/14 00:57:02;;;;;;;3.40;2.20;;;11.20;99.90;;;;;;10078001;29;20245;-86
2023/03/14 01:02:05;;;;;;;2.77;2.20;;;11.40;99.90;;;;;;10091066;29;20888;-87
2023/03/14 01:07:08;;;;;;;2.27;1.77;;;11.50;99.90;;;;;;10089406;29;20248;-87
2023/03/14 01:12:10;;;;;;;3.90;2.63;;;11.70;99.90;;;;;;10079155;29;20653;-87
2023/03/14 01:17:13;;;;;;;2.67;2.00;;;12.20;99.90;;;;;;10080019;29;20270;-87
2023/03/14 01:22:15;;;;;;;2.80;1.80;;;12.20;99.90;;;;;;10065006;29;20243;-87
2023/03/14 01:27:18;;;;;;;1.77;1.13;;;12.30;99.90;;;;;;10067377;29;20246;-87
2023/03/14 01:32:21;;;;;;;2.67;2.20;;;12.30;99.90;;;;;;10052028;29;20246;-87
2023/03/14 01:37:24;;;;;;;2.87;1.97;;;12.50;99.90;;;;;;10066589;29;20602;-87
2023/03/14 01:42:27;;;;;;;1.27;0.70;;;12.70;99.90;;;;;;10064351;29;20255;-87
2023/03/14 01:47:29;;;;;;;1.37;0.60;;;12.30;99.90;;;;;;10082874;29;20697;-87
2023/03/14 01:52:47;;;;;;;3.87;0.93;;;12.00;99.90;;;;;;10086668;29;20249;-87
2023/03/14 01:58:00;;;;;;;1.07;0.70;;;11.80;99.90;;;;;;10065565;29;20677;-87
2023/03/14 02:03:10;;;;;;;2.43;1.53;;;11.60;99.90;;;;;;10076382;29;20241;-87
2023/03/14 02:08:21;;;;;;;3.93;1.93;;;11.50;99.90;;;;;;10087921;29;20246;-87
2023/03/14 02:13:31;;;;;;;2.47;1.33;;;12.30;99.90;;;;;;10086936;29;20239;-87
2023/03/14 02:18:52;;;;;;;1.07;0.80;;;12.60;99.90;;;;;;10089797;29;20282;-88
2023/03/14 02:24:45;;;;;;;2.03;1.10;;;11.90;99.90;;;;;;10089346;29;20691;-88
2023/03/14 02:30:23;;;;;;;1.67;1.33;;;11.50;99.90;;;;;;10072490;29;20277;-88
2023/03/14 02:35:29;;;;;;;2.23;1.70;;;11.20;99.90;;;;;;10058444;29;20245;-88
2023/03/14 02:40:32;;;;;;;3.27;2.03;;;11.00;99.90;;;;;;10094292;29;20264;-88
2023/03/14 02:45:41;;;;;;;3.70;3.03;;;11.00;99.90;;;;;;10094316;29;20348;-87
2023/03/14 02:50:52;;;;;;;2.50;2.20;;;10.90;99.90;;;;;;10072071;29;20305;-87
2023/03/14 02:55:55;;;;;;;3.40;2.43;;;10.80;99.90;;;;;;10058249;29;20237;-87
2023/03/14 03:00:59;;;;;;;2.87;2.63;;;10.70;99.90;;;;;;10055702;29;20265;-87
2023/03/14 03:06:02;;;;;;;3.77;2.63;;;10.60;99.90;;;;;;10091408;29;20237;-88
2023/03/14 03:11:06;;;;;;;3.63;2.10;;;10.50;99.90;;;;;;10097306;29;20236;-87
2023/03/14 03:16:10;;;;;;;2.50;2.07;;;10.50;99.90;;;;;;10093465;29;20249;-89
2023/03/14 03:21:13;;;;;;;2.27;1.90;;;10.70;99.90;;;;;;10099084;29;20320;-88
2023/03/14 03:26:18;;;;;;;3.77;2.97;;;10.80;99.90;;;;;;10128928;29;20246;-89
2023/03/14 03:31:20;;;;;;;5.50;2.83;;;10.60;99.90;;;;;;10101586;29;20706;-89
2023/03/14 03:36:25;;;;;;;5.27;3.77;;;10.50;99.90;;;;;;10106402;29;20244;-89
2023/03/14 03:41:27;;;;;;;5.23;3.47;;;10.40;99.90;;;;;;10115023;29;20311;-89
2023/03/14 03:46:30;;;;;;;3.23;2.87;;;10.20;99.90;;;;;;10117369;29;20240;-89
2023/03/14 03:51:33;;;;;;;3.87;3.33;;;10.10;99.90;;;;;;10130807;29;20299;-88
2023/03/14 03:56:35;;;;;;;6.57;4.37;;;9.90;99.90;;;;;;10098471;29;20281;-89
2023/03/14 04:01:38;;;;;;;5.40;3.67;;;9.80;99.90;;;;;;10091078;29;20272;-89
2023/03/14 04:06:41;;;;;;;3.83;3.43;;;9.60;99.90;;;;;;10092811;29;20300;-88
2023/03/14 04:11:44;;;;;;;6.50;3.80;;;9.40;99.90;;;;;;10078793;29;21022;-88
2023/03/14 04:17:07;;;;;;;4.30;3.53;;;9.30;99.90;;;;;;10053235;29;20272;-89
2023/03/14 04:22:10;;;;;;;4.97;3.77;;;9.10;99.90;;;;;;10057312;29;20333;-88
2023/03/14 04:27:21;;;;;;;5.83;3.70;;;9.20;99.90;;;;;;10051582;29;20241;-88
2023/03/14 04:32:24;;;;;;;5.27;3.83;;;9.10;99.90;;;;;;10052167;29;20253;-88
2023/03/14 04:37:27;;;;;;;6.23;4.47;;;9.20;99.90;;;;;;10088867;29;20249;-87
2023/03/14 04:42:30;;;;;;;4.83;4.00;;;9.10;99.90;;;;;;10067611;29;20286;-89
2023/03/14 04:47:32;;;;;;;8.17;6.40;;;9.20;99.90;;;;;;10075074;29;20238;-88
2023/03/14 04:52:38;;;;;;;7.60;5.97;;;9.00;99.90;;;;;;10065758;29;20256;-88
2023/03/14 04:57:41;;;;;;;3.10;2.80;;;9.10;99.90;;;;;;10052305;29;20251;-88
2023/03/14 05:02:45;;;;;;;6.17;3.60;;;9.20;99.90;;;;;;10087933;29;20267;-88
2023/03/14 05:08:11;;;;;;;5.83;5.17;;;9.30;99.90;;;;;;10044855;29;20690;-88
2023/03/14 05:13:40;;;;;;;10.40;7.00;;;9.40;99.90;;;;;;10084236;29;20241;-88
2023/03/14 05:19:05;;;;;;;12.17;7.53;;;8.70;99.90;;;;;;10069937;29;20754;-88
2023/03/14 05:24:34;;;;;;;9.63;6.87;;;8.30;99.90;;;;;;10040683;29;20237;-89
2023/03/14 05:30:04;;;;;;;9.07;6.57;;;8.20;99.90;;;;;;10062332;29;20248;-88
2023/03/14 05:35:31;;;;;;;14.33;7.43;;;8.10;99.90;;;;;;10050217;29;20270;-89
2023/03/14 05:41:03;;;;;;;21.53;9.23;;;8.10;99.90;;;;;;10043323;29;20660;-90
2023/03/14 05:46:24;;;;;;;15.97;8.80;;;8.10;99.90;;;;;;10068218;29;20244;-88
2023/03/14 05:51:55;;;;;;;17.73;10.47;;;8.10;99.90;;;;;;10052691;29;20747;-88
2023/03/14 05:57:21;;;;;;;11.20;7.30;;;8.10;99.90;;;;;;10053531;29;20248;-87
2023/03/14 06:02:42;;;;;;;10.33;7.13;;;8.30;99.90;;;;;;10051374;29;20743;-88
2023/03/14 06:07:55;;;;;;;10.63;7.13;;;8.50;99.90;;;;;;10049573;29;20268;-88
2023/03/14 06:12:58;;;;;;;8.63;5.43;;;8.60;99.90;;;;;;10068073;29;20696;-87
2023/03/14 06:18:01;;;;;;;8.73;5.67;;;8.80;99.90;;;;;;10095238;29;20273;-88
2023/03/14 06:23:05;;;;;;;7.60;5.43;;;9.40;99.90;;;;;;10095478;29;20268;-88
2023/03/14 06:28:08;;;;;;;9.83;5.33;;;9.80;99.90;;;;;;10075404;29;20243;-87
2023/03/14 06:33:11;;;;;;;9.67;5.70;;;10.80;99.90;;;;;;10057453;29;20249;-87
2023/03/14 06:38:16;;;;;;;11.07;6.20;;;11.60;99.90;;;;;;10093819;29;20300;-88
2023/03/14 06:43:19;;;;;;;7.77;4.80;;;12.10;99.90;;;;;;10093707;29;20276;-88
2023/03/14 06:48:22;;;;;;;9.87;5.80;;;12.40;99.90;;;;;;10093527;29;20250;-86
2023/03/14 06:53:27;;;;;;;8.77;4.60;;;12.50;99.90;;;;;;10086029;29;20243;-87
2023/03/14 06:58:34;;;;;;;5.67;4.20;;;12.80;99.90;;;;;;10093341;29;20707;-87
2023/03/14 07:03:39;;;;;;;7.43;4.10;;;13.10;99.90;;;;;;10095345;29;20234;-87
2023/03/14 07:08:42;;;;;;;7.00;3.60;;;12.90;99.90;;;;;;10075950;29;20242;-92
2023/03/14 07:13:44;;;;;;;4.50;3.17;;;13.20;99.90;;;;;;10076515;29;20241;-91
2023/03/14 07:18:49;;;;;;;8.90;3.60;;;13.00;99.90;;;;;;10092553;29;20295;-92
2023/03/14 07:23:52;;;;;;;6.87;3.97;;;13.00;99.90;;;;;;10090484;29;20691;-92
2023/03/14 07:28:55;;;;;;;3.80;3.37;;;13.20;99.90;;;;;;10092296;29;20257;-91
2023/03/14 07:33:58;;;;;;;4.50;3.33;;;13.60;99.90;;;;;;10092506;29;20237;-92
2023/03/14 07:39:05;;;;;;;5.07;3.03;;;13.80;99.90;;;;;;10112617;29;20329;-93
2023/03/14 07:44:19;;;;;;;6.37;3.30;;;13.30;99.90;;;;;;10106023;29;20248;-94
2023/03/14 07:49:22;;;;;;;7.30;4.67;;;13.40;99.90;;;;;;10095182;29;20332;-94
2023/03/14 07:54:25;;;;;;;5.97;3.67;;;13.10;99.90;;;;;;10080635;29;20280;-93
2023/03/14 07:59:28;;;;;;;6.27;3.73;;;13.30;99.90;;;;;;10089062;29;20297;-92
2023/03/14 08:04:32;;;;;;;5.60;4.10;;;13.00;99.90;;;;;;10076921;29;20681;-94
2023/03/14 08:09:35;;;;;;;3.80;2.73;;;13.30;99.90;;;;;;10054793;29;20259;-93
2023/03/14 08:14:37;;;;;;;5.80;3.13;;;13.60;99.90;;;;;;10089483;29;20307;-94
2023/03/14 08:19:41;;;;;;;4.37;2.40;;;13.80;99.90;;;;;;10091071;29;20295;-93
2023/03/14 08:24:44;;;;;;;7.80;3.27;;;14.20;99.90;;;;;;10059132;29;20237;-94
2023/03/14 08:29:47;;;;;;;4.73;2.87;;;14.30;99.90;;;;;;10072217;29;20259;-93
2023/03/14 08:34:50;;;;;;;4.53;2.90;;;14.40;99.90;;;;;;10092318;29;20247;-93
2023/03/14 08:39:53;;;;;;;3.70;2.07;;;14.40;99.90;;;;;;10090379;29;20272;-93
2023/03/14 08:44:56;;;;;;;5.07;3.03;;;15.10;99.90;;;;;;10089142;29;20260;-92
2023/03/14 08:49:58;;;;;;;1.73;1.10;;;15.00;99.90;;;;;;10091455;29;20714;-93
2023/03/14 08:55:01;;;;;;;5.23;1.87;;;15.40;99.90;;;;;;10090131;29;20244;-95
2023/03/14 09:00:10;;;;;;;3.43;2.30;;;15.40;99.90;;;;;;10060903;29;20286;-89
2023/03/14 09:05:13;;;;;;;4.60;2.40;;;15.40;99.90;;;;;;10066335;29;20249;-93
2023/03/14 09:10:16;;;;;;;4.33;2.30;;;15.50;99.90;;;;;;10067224;29;20244;-92
2023/03/14 09:15:19;;;;;;;10.53;3.00;;;15.50;99.90;;;;;;10063334;29;20248;-91
2023/03/14 09:20:21;;;;;;;2.90;2.00;;;15.50;99.90;;;;;;10092279;29;20734;-92
2023/03/14 09:25:24;;;;;;;2.57;1.87;;;15.50;99.90;;;;;;10049960;29;20712;-90
2023/03/14 09:30:27;;;;;;;4.33;2.43;;;15.50;99.90;;;;;;10066639;29;20779;-91
2023/03/14 09:35:29;;;;;;;1.47;1.00;;;15.50;99.90;;;;;;10090506;29;20240;-94
2023/03/14 09:40:35;;;;;;;6.63;2.57;;;;;;;;;;10090394;29;20271;-93
2023/03/14 09:45:40;;;;;;;7.37;2.20;;;16.20;99.90;;;;;;10089800;29;20658;-94
2023/03/14 09:50:47;;;;;;;6.80;2.57;;;16.00;99.90;;;;;;10089874;29;20308;-93
2023/03/14 09:55:52;;;;;;;3.80;1.83;;;15.90;99.90;;;;;;10089008;29;20237;-93
2023/03/14 10:00:58;;;;;;;4.37;2.23;;;15.90;99.90;;;;;;10064967;29;20298;-93
2023/03/14 10:06:01;;;;;;;4.63;2.10;;;15.60;99.90;;;;;;10065784;29;20313;-92
2023/03/14 10:11:04;;;;;;;4.97;2.40;;;15.20;99.90;;;;;;10068178;29;20687;-93
2023/03/14 10:16:07;;;;;;;3.53;2.43;;;15.00;99.90;;;;;;10103712;29;20317;-93
2023/03/14 10:21:26;;;;;;;7.40;2.43;;;15.00;99.90;;;;;;10107064;29;20724;-93
2023/03/14 10:26:29;;;;;;;4.73;2.77;;;15.00;99.90;;;;;;10086270;29;20257;-93
2023/03/14 10:31:48;;;;;;;4.73;1.80;;;15.30;99.90;;;;;;10072940;29;20304;-93
2023/03/14 10:37:05;;;;;;;5.50;2.87;;;15.00;99.90;;;;;;10088777;29;20255;-92
2023/03/14 10:42:21;;;;;;;2.57;1.90;;;15.00;99.90;;;;;;10053148;29;20268;-93
2023/03/14 10:47:26;;;;;;;2.50;1.27;;;15.20;99.90;;;;;;10092480;29;20244;-93
2023/03/14 10:52:30;;;;;;;5.47;2.73;;;15.30;99.90;;;;;;10110211;29;20245;-91
2023/03/14 10:57:53;;;;;;;6.07;2.63;;;15.50;99.90;;;;;;10115845;29;20235;-92
2023/03/14 11:03:06;;;;;;;2.80;1.97;;;15.10;99.80;;;;;;10100952;29;20263;-93
2023/03/14 11:08:20;;;;;;;3.30;2.53;;;14.90;99.90;;;;;;10100670;29;20268;-92
2023/03/14 11:13:28;;;;;;;6.13;2.63;;;15.00;99.90;;;;;;10114240;29;20318;-93
2023/03/14 11:18:49;;;;;;;3.33;2.10;;;14.90;99.90;;;;;;10124419;29;20836;-92
2023/03/14 11:24:16;;;;;;;4.00;2.90;;;15.00;99.90;;;;;;10080171;29;20274;-92
2023/03/14 11:29:19;;;;;;;8.13;4.17;;;14.80;99.90;;;;;;10094998;29;20304;-93
2023/03/14 11:34:35;;;;;;;6.13;3.27;;;15.00;99.90;;;;;;10106048;29;20660;-92
2023/03/14 11:39:41;;;;;;;4.60;2.00;;;15.20;99.90;;;;;;10109788;29;20306;-92
2023/03/14 11:44:49;;;;;;;6.43;2.63;;;15.10;99.90;;;;;;10099526;29;20634;-93
2023/03/14 11:50:24;;;;;;;6.13;2.67;;;15.20;99.90;;;;;;10111593;29;20243;-92
2023/03/14 11:55:33;;;;;;;4.77;2.20;;;15.10;99.90;;;;;;10100566;29;20239;-93
2023/03/14 12:00:40;;;;;;;3.77;2.23;;;15.30;99.90;;;;;;10111135;29;20290;-93
2023/03/14 12:06:05;;;;;;;4.20;2.20;;;15.20;99.90;;;;;;10110989;29;20630;-93
2023/03/14 12:11:19;;;;;;;4.73;3.13;;;15.30;99.90;;;;;;10113042;29;20681;-93
2023/03/14 12:16:24;;;;;;;3.93;2.27;;;15.30;99.90;;;;;;10103325;29;20331;-90
2023/03/14 12:21:47;;;;;;;2.63;2.07;;;14.90;99.90;;;;;;10105385;29;20263;-92
2023/03/14 12:26:56;;;;;;;5.00;2.40;;;14.80;99.90;;;;;;10074372;29;20328;-93
2023/03/14 12:32:23;;;;;;;6.00;2.97;;;14.70;99.90;;;;;;10089093;29;20327;-94
2023/03/14 12:37:50;;;;;;;3.17;1.90;;;14.70;99.90;;;;;;10083091;29;20700;-93
2023/03/14 12:43:05;;;;;;;2.63;1.47;;;14.80;99.90;;;;;;10075356;29;20688;-94
2023/03/14 12:48:07;;;;;;;8.43;2.60;;;15.20;99.90;;;;;;10092409;29;20304;-93
2023/03/14 12:53:30;;;;;;;1.63;1.27;;;15.20;99.90;;;;;;10091404;29;20237;-92
2023/03/14 12:58:47;;;;;;;3.67;1.43;;;15.30;99.90;;;;;;10092206;29;20685;-92
2023/03/14 13:03:53;;;;;;;1.87;1.53;;;15.60;99.90;;;;;;10090994;29;20272;-94
2023/03/14 13:08:57;;;;;;;3.10;1.73;;;15.60;99.90;;;;;;10090063;29;20618;-95
2023/03/14 13:13:59;;;;;;;4.27;1.80;;;15.70;99.90;;;;;;10112369;29;20248;-94
2023/03/14 13:19:13;;;;;;;2.20;1.67;;;15.60;99.90;;;;;;10088470;29;20272;-93
2023/03/14 13:24:26;;;;;;;2.37;1.67;;;15.80;99.90;;;;;;10080244;29;20312;-94
2023/03/14 13:29:32;;;;;;;1.40;1.07;;;15.80;99.90;;;;;;10088219;29;20268;-94
2023/03/14 13:34:35;;;;;;;3.30;1.60;;;15.80;99.90;;;;;;10123026;29;20708;-93
2023/03/14 13:39:40;;;;;;;0.67;0.60;;;15.60;99.90;;;;;;10090091;29;20245;-93
2023/03/14 13:44:43;;;;;;;2.47;1.53;;;15.70;99.90;;;;;;10091884;29;20846;-92
2023/03/14 13:49:46;;;;;;;2.27;1.50;;;15.80;99.90;;;;;;10089879;29;20614;-93
2023/03/14 13:54:53;;;;;;;1.93;1.80;;;15.50;99.90;;;;;;10089335;29;20256;-94
2023/03/14 14:00:26;;;;;;;5.67;2.70;;;15.30;99.90;;;;;;10088562;29;20245;-92
2023/03/14 14:05:31;;;;;;;5.97;2.20;;;15.20;95.90;;;;;;10052288;29;20630;-93
2023/03/14 14:10:37;;;;;;;1.33;1.20;;;15.10;99.90;;;;;;10065073;29;20300;-93
2023/03/14 14:15:47;;;;;;;2.07;1.60;;;15.20;99.90;;;;;;10067452;29;20244;-93
2023/03/14 14:20:50;;;;;;;1.43;1.30;;;15.20;99.90;;;;;;10087213;29;20737;-93
2023/03/14 14:25:53;;;;;;;2.23;1.33;;;15.10;99.90;;;;;;10078782;29;20252;-92
2023/03/14 14:31:19;;;;;;;4.57;1.83;;;15.00;99.90;;;;;;10087330;29;20252;-93
2023/03/14 14:36:37;;;;;;;4.70;2.00;;;14.80;99.90;;;;;;10079514;29;20237;-88
2023/03/14 14:41:41;;;;;;;3.50;1.60;;;14.70;96.40;;;;;;10057721;29;20268;-88
2023/03/14 14:46:44;;;;;;;2.70;1.70;;;14.60;95.50;;;;;;10056151;29;20274;-88
2023/03/14 14:51:51;;;;;;;3.63;1.80;;;14.50;95.00;;;;;;10057471;29;20302;-88
2023/03/14 14:57:01;;;;;;;2.70;1.10;;;14.60;96.50;;;;;;10057504;29;20690;-88
2023/03/14 15:02:04;;;;;;;3.43;1.63;;;14.20;97.10;;;;;;10055267;29;20687;-87
2023/03/14 15:07:08;;;;;;;3.43;1.87;;;14.30;98.70;;;;;;10055759;29;20297;-88
2023/03/14 15:12:11;;;;;;;3.23;1.80;;;14.20;99.90;;;;;;10055231;29;20245;-88
2023/03/14 15:17:14;;;;;;;5.50;2.67;;;14.20;99.90;;;;;;10056363;29;20709;-88
2023/03/14 15:22:16;;;;;;;4.80;2.53;;;13.80;99.90;;;;;;10054694;29;20300;-88
2023/03/14 15:27:19;;;;;;;5.17;3.47;;;13.70;99.90;;;;;;10055329;29;20296;-88
2023/03/14 15:32:22;;;;;;;13.23;7.17;;;13.30;99.90;;;;;;10055745;29;20253;-88
2023/03/14 15:37:26;;;;;;;9.27;5.97;;;12.90;99.90;;;;;;10055883;29;20641;-88
2023/03/14 15:42:28;;;;;;;4.93;3.67;;;12.80;99.90;;;;;;10058422;29;20273;-89
2023/03/14 15:47:32;;;;;;;4.30;3.03;;;12.60;99.90;;;;;;10069686;29;20244;-87
2023/03/14 15:52:34;;;;;;;3.50;2.67;;;12.50;99.90;;;;;;10062137;29;20732;-87
2023/03/14 15:57:37;;;;;;;5.67;3.93;;;12.20;99.90;;;;;;10093887;29;20276;-87
2023/03/14 16:02:41;;;;;;;10.77;6.27;;;11.90;99.90;;;;;;10091484;29;20272;-87
2023/03/14 16:07:43;;;;;;;7.63;5.03;;;11.80;99.90;;;;;;10065962;29;20245;-87
2023/03/14 16:12:46;;;;;;;6.07;3.83;;;11.80;99.90;;;;;;10083053;29;20248;-87
2023/03/14 16:17:53;;;;;;;5.87;3.90;;;11.80;99.90;;;;;;10092661;29;20329;-87
2023/03/14 16:22:55;;;;;;;6.90;3.80;;;12.00;99.90;;;;;;10081942;29;20269;-87
2023/03/14 16:27:58;;;;;;;9.53;5.17;;;12.30;99.90;;;;;;10082956;29;20248;-86
2023/03/14 16:33:13;;;;;;;9.47;4.80;;;12.40;99.90;;;;;;10087848;29;20305;-85
2023/03/14 16:38:16;;;;;;;11.60;5.70;;;12.30;99.90;;;;;;10061216;29;20902;-86
2023/03/14 16:43:18;;;;;;;13.53;6.30;;;12.10;99.90;;;;;;10107827;29;20268;-86
2023/03/14 16:48:21;;;;;;;11.83;6.50;;;12.20;99.90;;;;;;10107237;29;20303;-86
2023/03/14 16:53:27;;;;;;;12.90;7.53;;;12.10;99.90;;;;;;10090405;29;20240;-86
2023/03/14 16:58:30;;;;;;;11.20;6.63;;;12.20;99.90;;;;;;10059654;29;20248;-86
2023/03/14 17:03:33;;;;;;;10.37;6.03;;;12.10;99.90;;;;;;10084730;29;20284;-86
2023/03/14 17:08:36;;;;;;;11.50;7.47;;;12.00;99.90;;;;;;10073883;29;20250;-87
2023/03/14 17:13:38;;;;;;;9.93;6.40;;;11.80;99.90;;;;;;10052651;29;20262;-86
2023/03/14 17:18:41;;;;;;;10.37;6.60;;;11.70;99.90;;;;;;10075674;29;20280;-86
2023/03/14 17:23:43;;;;;;;9.57;5.63;;;11.70;99.90;;;;;;10058056;29;20742;-86
2023/03/14 17:28:46;;;;;;;9.97;7.23;;;11.60;99.90;;;;;;10062658;29;20243;-86
2023/03/14 17:33:50;;;;;;;9.63;5.37;;;12.00;99.90;;;;;;10066142;29;20622;-85
2023/03/14 17:38:54;;;;;;;6.50;4.87;;;12.10;99.90;;;;;;10072075;29;20262;-86
2023/03/14 17:43:58;;;;;;;6.50;3.90;;;12.30;99.90;;;;;;10060224;29;20789;-86
2023/03/14 17:49:01;;;;;;;7.70;4.63;;;12.40;99.90;;;;;;10070848;29;20702;-86
2023/03/14 17:54:04;;;;;;;8.57;5.50;;;12.40;99.90;;;;;;10077038;29;20248;-86
2023/03/14 17:59:06;;;;;;;7.27;5.43;;;12.60;99.90;;;;;;10083490;29;20241;-86
2023/03/14 18:04:09;;;;;;;7.33;5.50;;;12.40;99.90;;;;;;10054477;29;20335;-86
2023/03/14 18:09:12;;;;;;;15.87;7.87;;;12.30;99.90;;;;;;10078814;29;20249;-86
2023/03/14 18:14:14;;;;;;;12.70;6.73;;;12.00;99.90;;;;;;10082710;29;20253;-86
2023/03/14 18:19:17;;;;;;;6.67;4.60;;;11.70;99.90;;;;;;10071462;29;20640;-86
2023/03/14 18:24:20;;;;;;;8.03;4.40;;;11.40;99.90;;;;;;10081925;29;20265;-87
2023/03/14 18:29:23;;;;;;;9.90;5.50;;;11.20;99.90;;;;;;10077771;29;20287;-86
2023/03/14 18:34:25;;;;;;;13.47;6.90;;;11.00;99.90;;;;;;10082926;29;20675;-86
2023/03/14 18:39:28;;;;;;;11.17;7.17;;;10.80;99.90;;;;;;10069534;29;20241;-87
2023/03/14 18:44:31;;;;;;;4.17;3.60;;;10.60;99.90;;;;;;10083317;29;20267;-86
2023/03/14 18:49:34;;;;;;;7.13;4.27;;;10.50;99.90;;;;;;10061761;29;20245;-86
2023/03/14 18:54:37;;;;;;;8.23;5.03;;;10.40;99.90;;;;;;10072014;29;20747;-86
2023/03/14 18:59:40;;;;;;;6.87;4.20;;;10.20;99.90;;;;;;10087024;29;21299;-86
2023/03/14 19:04:43;;;;;;;6.47;4.57;;;10.10;99.90;;;;;;10076263;29;20325;-89
2023/03/14 19:09:45;;;;;;;6.83;4.40;;;10.10;99.90;;;;;;10088268;29;20248;-86
2023/03/14 19:14:48;;;;;;;13.40;6.87;;;10.00;99.90;;;;;;10099958;29;20309;-86
2023/03/14 19:19:55;;;;;;;9.63;5.67;;;9.90;99.90;;;;;;10085875;29;20257;-86
2023/03/14 19:24:58;;;;;;;7.10;5.50;;;10.00;99.90;;;;;;10091538;29;20277;-86
2023/03/14 19:30:00;;;;;;;9.43;5.77;;;9.90;99.90;;;;;;10079256;29;20245;-86
2023/03/14 19:35:04;;;;;;;10.10;5.50;;;9.80;99.90;;;;;;10083052;29;20308;-86
2023/03/14 19:40:08;;;;;;;5.07;3.60;;;9.80;99.90;;;;;;10090901;29;20712;-86
2023/03/14 19:45:11;;;;;;;2.70;1.73;;;10.40;99.90;;;;;;10075203;29;20291;-86
2023/03/14 19:50:14;;;;;;;2.80;1.50;;;9.50;99.90;;;;;;10081054;29;20701;-84
2023/03/14 19:55:17;;;;;;;1.43;1.00;;;7.10;99.90;;;;;;10078883;29;20317;-85
2023/03/14 20:00:21;;;;;;;3.27;1.20;;;5.70;99.90;;;;;;10078545;29;20633;-85
2023/03/14 20:05:24;;;;;;;9.37;5.67;;;4.70;99.90;;;;;;10075171;29;20261;-86
2023/03/14 20:10:26;;;;;;;4.40;1.77;;;7.10;99.90;;;;;;10086656;29;20642;-88
2023/03/14 20:15:29;;;;;;;2.37;1.80;;;5.40;99.90;;;;;;10087861;29;20650;-87
2023/03/14 20:20:32;;;;;;;19.73;3.87;;;4.40;99.90;;;;;;10074879;29;20368;-88
2023/03/14 20:25:36;;;;;;;12.90;3.70;;;3.90;99.90;;;;;;10088239;29;20285;-87
2023/03/14 20:30:41;;;;;;;18.30;4.27;;;4.80;99.90;;;;;;10071876;29;20288;-88
2023/03/14 20:35:54;;;;;;;5.57;3.33;;;3.40;99.90;;;;;;10092911;29;20241;-88
2023/03/14 20:40:59;;;;;;;7.93;2.27;;;4.50;99.90;;;;;;10080656;29;20304;-87
2023/03/14 20:46:02;;;;;;;11.77;2.90;;;6.00;99.90;;;;;;10097051;29;20328;-87
2023/03/14 20:51:05;;;;;;;7.50;3.00;;;3.90;99.90;;;;;;10099114;29;20270;-88
2023/03/14 20:56:07;;;;;;;6.93;2.20;;;5.80;99.90;;;;;;10089336;29;20246;-87
2023/03/14 21:01:10;;;;;;;1.93;1.73;;;6.20;99.90;;;;;;10071585;29;20306;-87
2023/03/14 21:06:13;;;;;;;3.10;2.47;;;6.30;99.90;;;;;;10088133;29;20750;-87
2023/03/14 21:11:15;;;;;;;2.63;1.70;;;7.60;99.90;;;;;;10100341;29;20231;-87
2023/03/14 21:16:18;;;;;;;3.03;1.67;;;7.50;99.90;;;;;;10096263;29;21020;-87
2023/03/14 21:21:21;;;;;;;2.60;1.87;;;6.90;99.90;;;;;;10104001;29;20267;-87
2023/03/14 21:26:24;;;;;;;1.87;1.70;;;7.80;99.90;;;;;;10096128;29;20724;-88
2023/03/14 21:31:27;;;;;;;3.20;1.90;;;7.60;99.90;;;;;;10102143;29;20260;-88
2023/03/14 21:36:30;;;;;;;3.80;2.30;;;8.40;99.90;;;;;;10105079;29;20248;-88
2023/03/14 21:41:33;;;;;;;1.97;1.40;;;8.60;99.90;;;;;;10109411;29;20248;-88
2023/03/14 21:46:36;;;;;;;2.53;1.93;;;9.10;99.90;;;;;;9767635;29;10000311;-88
2023/03/14 21:51:39;;;;;;;2.30;1.70;;;9.60;99.90;;;;;;10105562;29;20292;-88
2023/03/14 21:56:42;;;;;;;2.37;2.10;;;9.70;99.90;;;;;;10100324;29;20348;-88
2023/03/14 22:01:45;;;;;;;3.30;2.07;;;9.10;99.90;;;;;;10098836;29;20249;-87
2023/03/14 22:06:48;;;;;;;4.27;2.30;;;9.10;99.90;;;;;;10073383;29;20332;-87
2023/03/14 22:11:50;;;;;;;3.00;1.67;;;9.70;99.90;;;;;;10069211;29;20284;-88
2023/03/14 22:16:54;;;;;;;2.70;2.17;;;9.50;99.90;;;;;;10099073;29;20267;-87
2023/03/14 22:21:57;;;;;;;2.90;2.20;;;9.00;99.90;;;;;;10112783;29;20252;-87
2023/03/14 22:26:59;;;;;;;3.17;2.13;;;9.30;99.90;;;;;;10101354;29;20323;-88
2023/03/14 22:32:04;;;;;;;3.30;2.30;;;10.70;99.90;;;;;;10105038;29;20629;-88
2023/03/14 22:37:07;;;;;;;3.90;2.80;;;9.70;99.90;;;;;;10059551;29;20387;-87
2023/03/14 22:42:10;;;;;;;3.87;2.57;;;10.20;99.90;;;;;;10047450;29;20986;-87
2023/03/14 22:47:12;;;;;;;7.27;2.53;;;10.20;99.90;;;;;;10070357;29;20347;-87
2023/03/14 22:52:15;;;;;;;4.60;3.10;;;10.70;99.90;;;;;;10086172;29;20263;-88
2023/03/14 22:57:19;;;;;;;6.30;3.23;;;10.40;99.90;;;;;;10070230;29;20779;-87
2023/03/14 23:02:21;;;;;;;5.43;3.17;;;11.30;99.90;;;;;;10083409;29;20329;-88
2023/03/14 23:07:24;;;;;;;4.77;2.77;;;11.00;99.90;;;;;;10089357;29;20295;-88
2023/03/14 23:12:26;;;;;;;9.83;3.60;;;9.90;99.90;;;;;;10076685;29;21032;-88
2023/03/14 23:17:29;;;;;;;3.93;3.00;;;11.00;99.90;;;;;;10062124;29;20662;-89
2023/03/14 23:22:32;;;;;;;4.27;2.90;;;11.20;99.90;;;;;;10094397;29;20649;-89
2023/03/14 23:27:35;;;;;;;7.07;2.87;;;10.70;99.90;;;;;;10078230;29;20767;-87
2023/03/14 23:32:38;;;;;;;2.93;2.40;;;10.80;99.90;;;;;;10087486;29;20284;-87
2023/03/14 23:37:41;;;;;;;6.87;3.10;;;10.50;99.90;;;;;;10059200;29;20711;-87
2023/03/14 23:42:44;;;;;;;2.37;1.97;;;10.50;99.90;;;;;;10055794;29;20936;-87
2023/03/14 23:47:46;;;;;;;5.53;2.47;;;11.10;99.90;;;;;;10077768;29;20283;-87
2023/03/14 23:52:49;;;;;;;2.83;2.10;;;11.40;99.90;;;;;;10092843;29;20248;-87
2023/03/14 23:57:51;;;;;;;2.30;2.03;;;11.50;99.90;;;;;;10091270;29;20253;-87
